sensor_id;sensor_type;location;lat;lon;timestamp;temperature;humidity
1381;DHT22;684;48.342;10.096;2023-02-28T00:02:26;-0.20;29.40
1381;DHT22;684;48.342;10.096;2023-02-28T00:04:53;-0.20;29.30
1381;DHT22;684;48.342;10.096;2023-02-28T00:07:26;-0.20;29.40
1381;DHT22;684;48.342;10.096;2023-02-28T00:09:53;-0.20;29.20
1381;DHT22;684;48.342;10.096;2023-02-28T00:12:20;-0.20;29.10
1381;DHT22;684;48.342;10.096;2023-02-28T00:14:46;-0.10;28.90
1381;DHT22;684;48.342;10.096;2023-02-28T00:17:13;-0.10;28.70
1381;DHT22;684;48.342;10.096;2023-02-28T00:19:41;-0.10;28.50
1381;DHT22;684;48.342;10.096;2023-02-28T00:22:08;-0.10;28.00
1381;DHT22;684;48.342;10.096;2023-02-28T00:24:35;-0.10;28.00
1381;DHT22;684;48.342;10.096;2023-02-28T00:27:02;-0.20;28.00
1381;DHT22;684;48.342;10.096;2023-02-28T00:29:28;-0.20;27.80
1381;DHT22;684;48.342;10.096;2023-02-28T00:31:55;-0.10;27.70
1381;DHT22;684;48.342;10.096;2023-02-28T00:34:22;-0.10;27.70
1381;DHT22;684;48.342;10.096;2023-02-28T00:36:50;-0.10;27.70
1381;DHT22;684;48.342;10.096;2023-02-28T00:39:16;-0.10;27.30
1381;DHT22;684;48.342;10.096;2023-02-28T00:41:43;-0.10;27.00
1381;DHT22;684;48.342;10.096;2023-02-28T00:44:10;0.00;27.00
1381;DHT22;684;48.342;10.096;2023-02-28T00:46:37;0.00;27.00
1381;DHT22;684;48.342;10.096;2023-02-28T00:49:03;0.00;26.80
1381;DHT22;684;48.342;10.096;2023-02-28T00:51:30;0.00;26.30
1381;DHT22;684;48.342;10.096;2023-02-28T00:53:58;0.00;25.60
1381;DHT22;684;48.342;10.096;2023-02-28T00:56:25;0.00;25.50
1381;DHT22;684;48.342;10.096;2023-02-28T00:58:52;0.00;25.20
1381;DHT22;684;48.342;10.096;2023-02-28T01:01:18;0.00;25.10
1381;DHT22;684;48.342;10.096;2023-02-28T01:03:45;0.00;25.00
1381;DHT22;684;48.342;10.096;2023-02-28T01:06:12;0.00;25.40
1381;DHT22;684;48.342;10.096;2023-02-28T01:08:38;0.00;24.40
1381;DHT22;684;48.342;10.096;2023-02-28T01:11:11;0.00;24.60
1381;DHT22;684;48.342;10.096;2023-02-28T01:13:38;0.10;24.60
1381;DHT22;684;48.342;10.096;2023-02-28T01:16:06;0.00;24.40
1381;DHT22;684;48.342;10.096;2023-02-28T01:18:32;0.00;24.30
1381;DHT22;684;48.342;10.096;2023-02-28T01:21:03;0.10;24.40
1381;DHT22;684;48.342;10.096;2023-02-28T01:23:30;0.00;24.50
1381;DHT22;684;48.342;10.096;2023-02-28T01:25:57;0.00;24.30
1381;DHT22;684;48.342;10.096;2023-02-28T01:28:25;0.00;24.40
1381;DHT22;684;48.342;10.096;2023-02-28T01:30:52;0.00;24.40
1381;DHT22;684;48.342;10.096;2023-02-28T01:33:19;0.00;24.40
1381;DHT22;684;48.342;10.096;2023-02-28T01:35:46;0.00;24.50
1381;DHT22;684;48.342;10.096;2023-02-28T01:38:13;0.00;24.50
1381;DHT22;684;48.342;10.096;2023-02-28T01:40:40;0.00;24.50
1381;DHT22;684;48.342;10.096;2023-02-28T01:43:19;0.00;24.30
1381;DHT22;684;48.342;10.096;2023-02-28T01:45:47;0.00;24.20
1381;DHT22;684;48.342;10.096;2023-02-28T01:48:14;0.10;24.40
1381;DHT22;684;48.342;10.096;2023-02-28T01:50:43;0.10;24.40
1381;DHT22;684;48.342;10.096;2023-02-28T01:53:14;0.00;24.20
1381;DHT22;684;48.342;10.096;2023-02-28T01:55:46;0.00;24.30
1381;DHT22;684;48.342;10.096;2023-02-28T01:58:14;0.00;24.50
1381;DHT22;684;48.342;10.096;2023-02-28T02:00:42;0.00;24.50
1381;DHT22;684;48.342;10.096;2023-02-28T02:03:13;0.00;24.40
1381;DHT22;684;48.342;10.096;2023-02-28T02:05:41;0.00;24.50
1381;DHT22;684;48.342;10.096;2023-02-28T02:08:15;0.00;24.60
1381;DHT22;684;48.342;10.096;2023-02-28T02:10:44;0.00;24.50
1381;DHT22;684;48.342;10.096;2023-02-28T02:13:37;0.00;24.20
1381;DHT22;684;48.342;10.096;2023-02-28T02:16:17;0.00;24.30
1381;DHT22;684;48.342;10.096;2023-02-28T02:18:52;0.00;24.40
1381;DHT22;684;48.342;10.096;2023-02-28T02:22:00;0.00;24.60
1381;DHT22;684;48.342;10.096;2023-02-28T02:25:09;0.00;24.80
1381;DHT22;684;48.342;10.096;2023-02-28T02:27:58;-0.10;24.70
1381;DHT22;684;48.342;10.096;2023-02-28T02:30:43;-0.10;25.40
1381;DHT22;684;48.342;10.096;2023-02-28T02:33:33;0.00;24.60
1381;DHT22;684;48.342;10.096;2023-02-28T02:36:12;0.00;24.50
1381;DHT22;684;48.342;10.096;2023-02-28T02:38:46;0.00;24.60
1381;DHT22;684;48.342;10.096;2023-02-28T02:41:19;0.00;24.50
1381;DHT22;684;48.342;10.096;2023-02-28T02:43:51;0.00;24.60
1381;DHT22;684;48.342;10.096;2023-02-28T02:46:20;0.00;24.50
1381;DHT22;684;48.342;10.096;2023-02-28T02:48:48;0.00;24.30
1381;DHT22;684;48.342;10.096;2023-02-28T02:51:20;0.00;24.50
1381;DHT22;684;48.342;10.096;2023-02-28T02:53:51;0.00;24.50
1381;DHT22;684;48.342;10.096;2023-02-28T02:56:20;0.00;24.30
1381;DHT22;684;48.342;10.096;2023-02-28T02:58:50;0.00;24.20
1381;DHT22;684;48.342;10.096;2023-02-28T03:01:20;-0.10;24.20
1381;DHT22;684;48.342;10.096;2023-02-28T03:03:54;-0.10;24.30
1381;DHT22;684;48.342;10.096;2023-02-28T03:06:23;0.00;24.20
1381;DHT22;684;48.342;10.096;2023-02-28T03:08:50;0.00;24.10
1381;DHT22;684;48.342;10.096;2023-02-28T03:11:17;0.00;24.00
1381;DHT22;684;48.342;10.096;2023-02-28T03:14:06;0.00;24.10
1381;DHT22;684;48.342;10.096;2023-02-28T03:16:41;0.20;23.90
1381;DHT22;684;48.342;10.096;2023-02-28T03:19:30;-0.10;24.00
1381;DHT22;684;48.342;10.096;2023-02-28T03:22:14;-0.10;24.20
1381;DHT22;684;48.342;10.096;2023-02-28T03:24:45;-0.10;24.20
1381;DHT22;684;48.342;10.096;2023-02-28T03:27:22;-0.10;24.40
1381;DHT22;684;48.342;10.096;2023-02-28T03:29:53;-0.10;24.60
1381;DHT22;684;48.342;10.096;2023-02-28T03:32:25;-0.10;24.60
1381;DHT22;684;48.342;10.096;2023-02-28T03:34:57;-0.10;24.70
1381;DHT22;684;48.342;10.096;2023-02-28T03:37:28;-0.10;24.90
1381;DHT22;684;48.342;10.096;2023-02-28T03:39:59;-0.10;24.60
1381;DHT22;684;48.342;10.096;2023-02-28T03:42:29;-0.10;24.60
1381;DHT22;684;48.342;10.096;2023-02-28T03:44:58;0.00;24.60
1381;DHT22;684;48.342;10.096;2023-02-28T03:47:30;-0.10;24.50
1381;DHT22;684;48.342;10.096;2023-02-28T03:50:01;-0.10;24.60
1381;DHT22;684;48.342;10.096;2023-02-28T03:52:34;-0.10;24.50
1381;DHT22;684;48.342;10.096;2023-02-28T03:55:05;0.00;24.20
1381;DHT22;684;48.342;10.096;2023-02-28T03:57:38;-0.10;25.00
1381;DHT22;684;48.342;10.096;2023-02-28T04:00:10;-0.10;24.20
1381;DHT22;684;48.342;10.096;2023-02-28T04:02:39;-0.10;24.10
1381;DHT22;684;48.342;10.096;2023-02-28T04:05:06;-0.10;24.10
1381;DHT22;684;48.342;10.096;2023-02-28T04:07:34;-0.10;24.10
1381;DHT22;684;48.342;10.096;2023-02-28T04:10:01;-0.10;24.00
1381;DHT22;684;48.342;10.096;2023-02-28T04:12:28;-0.10;24.10
1381;DHT22;684;48.342;10.096;2023-02-28T04:14:55;-0.10;24.30
1381;DHT22;684;48.342;10.096;2023-02-28T04:17:21;-0.10;24.30
1381;DHT22;684;48.342;10.096;2023-02-28T04:19:49;-0.10;24.10
1381;DHT22;684;48.342;10.096;2023-02-28T04:22:15;-0.10;24.10
1381;DHT22;684;48.342;10.096;2023-02-28T04:24:44;-0.10;24.20
1381;DHT22;684;48.342;10.096;2023-02-28T04:27:11;-0.10;24.20
1381;DHT22;684;48.342;10.096;2023-02-28T04:29:38;-0.10;24.10
1381;DHT22;684;48.342;10.096;2023-02-28T04:32:05;-0.10;24.10
1381;DHT22;684;48.342;10.096;2023-02-28T04:34:32;-0.10;24.20
1381;DHT22;684;48.342;10.096;2023-02-28T04:36:59;-0.10;24.30
1381;DHT22;684;48.342;10.096;2023-02-28T04:39:26;-0.20;24.40
1381;DHT22;684;48.342;10.096;2023-02-28T04:41:54;-0.20;24.30
1381;DHT22;684;48.342;10.096;2023-02-28T04:44:21;-0.20;24.50
1381;DHT22;684;48.342;10.096;2023-02-28T04:46:48;-0.20;24.50
1381;DHT22;684;48.342;10.096;2023-02-28T04:49:15;-0.20;24.40
1381;DHT22;684;48.342;10.096;2023-02-28T04:51:42;-0.20;24.60
1381;DHT22;684;48.342;10.096;2023-02-28T04:54:09;-0.20;24.70
1381;DHT22;684;48.342;10.096;2023-02-28T04:56:36;-0.30;24.90
1381;DHT22;684;48.342;10.096;2023-02-28T04:59:04;-0.30;24.90
1381;DHT22;684;48.342;10.096;2023-02-28T05:01:32;-0.30;25.10
1381;DHT22;684;48.342;10.096;2023-02-28T05:04:01;-0.30;25.00
1381;DHT22;684;48.342;10.096;2023-02-28T05:06:30;-0.30;25.10
1381;DHT22;684;48.342;10.096;2023-02-28T05:08:57;-0.30;25.30
1381;DHT22;684;48.342;10.096;2023-02-28T05:11:26;-0.30;25.30
1381;DHT22;684;48.342;10.096;2023-02-28T05:13:54;-0.30;25.30
1381;DHT22;684;48.342;10.096;2023-02-28T05:16:23;-0.30;25.30
1381;DHT22;684;48.342;10.096;2023-02-28T05:18:49;-0.30;25.30
1381;DHT22;684;48.342;10.096;2023-02-28T05:21:25;-0.30;25.40
1381;DHT22;684;48.342;10.096;2023-02-28T05:23:53;-0.30;25.40
1381;DHT22;684;48.342;10.096;2023-02-28T05:26:20;-0.20;25.30
1381;DHT22;684;48.342;10.096;2023-02-28T05:28:47;-0.30;25.30
1381;DHT22;684;48.342;10.096;2023-02-28T05:31:14;-0.30;25.30
1381;DHT22;684;48.342;10.096;2023-02-28T05:33:42;-0.30;25.30
1381;DHT22;684;48.342;10.096;2023-02-28T05:36:09;-0.30;25.20
1381;DHT22;684;48.342;10.096;2023-02-28T05:38:35;-0.30;25.20
1381;DHT22;684;48.342;10.096;2023-02-28T05:41:05;-0.30;25.10
1381;DHT22;684;48.342;10.096;2023-02-28T05:43:32;-0.30;25.30
1381;DHT22;684;48.342;10.096;2023-02-28T05:46:01;-0.30;25.40
1381;DHT22;684;48.342;10.096;2023-02-28T05:48:28;-0.30;25.50
1381;DHT22;684;48.342;10.096;2023-02-28T05:50:57;-0.30;25.40
1381;DHT22;684;48.342;10.096;2023-02-28T05:53:23;-0.30;25.40
1381;DHT22;684;48.342;10.096;2023-02-28T05:55:51;-0.30;25.30
1381;DHT22;684;48.342;10.096;2023-02-28T05:58:18;-0.30;25.50
1381;DHT22;684;48.342;10.096;2023-02-28T06:00:45;-0.30;25.40
1381;DHT22;684;48.342;10.096;2023-02-28T06:03:11;-0.30;25.50
1381;DHT22;684;48.342;10.096;2023-02-28T06:05:38;-0.30;25.40
1381;DHT22;684;48.342;10.096;2023-02-28T06:08:06;-0.30;25.50
1381;DHT22;684;48.342;10.096;2023-02-28T06:10:33;-0.30;25.50
1381;DHT22;684;48.342;10.096;2023-02-28T06:13:00;-0.30;25.50
1381;DHT22;684;48.342;10.096;2023-02-28T06:15:28;-0.30;25.50
1381;DHT22;684;48.342;10.096;2023-02-28T06:17:56;-0.30;25.50
1381;DHT22;684;48.342;10.096;2023-02-28T06:20:23;-0.30;25.40
1381;DHT22;684;48.342;10.096;2023-02-28T06:22:51;-0.40;25.60
1381;DHT22;684;48.342;10.096;2023-02-28T06:25:21;-0.30;25.60
1381;DHT22;684;48.342;10.096;2023-02-28T06:27:47;-0.30;25.80
1381;DHT22;684;48.342;10.096;2023-02-28T06:30:14;-0.40;25.70
1381;DHT22;684;48.342;10.096;2023-02-28T06:32:41;-0.40;25.70
1381;DHT22;684;48.342;10.096;2023-02-28T06:35:08;-0.40;25.50
1381;DHT22;684;48.342;10.096;2023-02-28T06:37:35;-0.30;25.50
1381;DHT22;684;48.342;10.096;2023-02-28T06:40:03;-0.40;25.30
1381;DHT22;684;48.342;10.096;2023-02-28T06:42:33;-0.40;25.40
1381;DHT22;684;48.342;10.096;2023-02-28T06:45:01;-0.30;25.50
1381;DHT22;684;48.342;10.096;2023-02-28T06:47:34;-0.30;25.70
1381;DHT22;684;48.342;10.096;2023-02-28T06:50:01;-0.40;25.70
1381;DHT22;684;48.342;10.096;2023-02-28T06:52:28;-0.30;25.60
1381;DHT22;684;48.342;10.096;2023-02-28T06:54:55;-0.30;25.30
1381;DHT22;684;48.342;10.096;2023-02-28T06:57:27;-0.30;25.30
1381;DHT22;684;48.342;10.096;2023-02-28T06:59:57;-0.40;25.50
1381;DHT22;684;48.342;10.096;2023-02-28T07:02:24;-0.30;25.50
1381;DHT22;684;48.342;10.096;2023-02-28T07:04:51;-0.30;25.60
1381;DHT22;684;48.342;10.096;2023-02-28T07:07:18;-0.30;25.60
1381;DHT22;684;48.342;10.096;2023-02-28T07:09:44;-0.20;25.50
1381;DHT22;684;48.342;10.096;2023-02-28T07:12:11;-0.30;25.60
1381;DHT22;684;48.342;10.096;2023-02-28T07:14:38;-0.30;25.70
1381;DHT22;684;48.342;10.096;2023-02-28T07:17:08;-0.30;25.70
1381;DHT22;684;48.342;10.096;2023-02-28T07:19:36;-0.20;25.60
1381;DHT22;684;48.342;10.096;2023-02-28T07:22:03;-0.20;25.60
1381;DHT22;684;48.342;10.096;2023-02-28T07:24:30;-0.20;25.60
1381;DHT22;684;48.342;10.096;2023-02-28T07:26:56;-0.10;25.60
1381;DHT22;684;48.342;10.096;2023-02-28T07:29:24;-0.10;25.60
1381;DHT22;684;48.342;10.096;2023-02-28T07:31:51;-0.10;25.50
1381;DHT22;684;48.342;10.096;2023-02-28T07:34:20;-0.10;25.20
1381;DHT22;684;48.342;10.096;2023-02-28T07:36:46;0.00;25.00
1381;DHT22;684;48.342;10.096;2023-02-28T07:39:13;0.00;24.60
1381;DHT22;684;48.342;10.096;2023-02-28T07:41:40;-0.10;24.80
1381;DHT22;684;48.342;10.096;2023-02-28T07:44:09;-0.10;24.80
1381;DHT22;684;48.342;10.096;2023-02-28T07:46:36;0.00;24.60
1381;DHT22;684;48.342;10.096;2023-02-28T07:49:03;-0.10;24.50
1381;DHT22;684;48.342;10.096;2023-02-28T07:51:31;-0.10;25.00
1381;DHT22;684;48.342;10.096;2023-02-28T07:53:58;-0.10;25.40
1381;DHT22;684;48.342;10.096;2023-02-28T07:56:24;0.00;25.20
1381;DHT22;684;48.342;10.096;2023-02-28T07:58:51;0.00;25.00
1381;DHT22;684;48.342;10.096;2023-02-28T08:01:18;-0.10;24.90
1381;DHT22;684;48.342;10.096;2023-02-28T08:03:45;0.00;24.60
1381;DHT22;684;48.342;10.096;2023-02-28T08:06:17;0.00;24.60
1381;DHT22;684;48.342;10.096;2023-02-28T08:08:45;0.00;24.60
1381;DHT22;684;48.342;10.096;2023-02-28T08:11:12;0.00;24.60
1381;DHT22;684;48.342;10.096;2023-02-28T08:13:39;0.10;24.50
1381;DHT22;684;48.342;10.096;2023-02-28T08:16:07;0.10;24.50
1381;DHT22;684;48.342;10.096;2023-02-28T08:18:34;0.10;24.40
1381;DHT22;684;48.342;10.096;2023-02-28T08:21:06;0.20;24.30
1381;DHT22;684;48.342;10.096;2023-02-28T08:23:33;0.30;24.00
1381;DHT22;684;48.342;10.096;2023-02-28T08:26:02;0.40;23.90
1381;DHT22;684;48.342;10.096;2023-02-28T08:28:29;0.50;23.90
1381;DHT22;684;48.342;10.096;2023-02-28T08:30:56;0.40;23.40
1381;DHT22;684;48.342;10.096;2023-02-28T08:33:24;0.50;23.30
1381;DHT22;684;48.342;10.096;2023-02-28T08:35:53;0.50;23.30
1381;DHT22;684;48.342;10.096;2023-02-28T08:38:20;0.50;23.10
1381;DHT22;684;48.342;10.096;2023-02-28T08:40:47;0.60;22.60
1381;DHT22;684;48.342;10.096;2023-02-28T08:43:15;0.60;22.70
1381;DHT22;684;48.342;10.096;2023-02-28T08:45:42;0.60;22.80
1381;DHT22;684;48.342;10.096;2023-02-28T08:48:09;0.60;22.90
1381;DHT22;684;48.342;10.096;2023-02-28T08:50:35;0.60;23.00
1381;DHT22;684;48.342;10.096;2023-02-28T08:53:02;0.60;22.60
1381;DHT22;684;48.342;10.096;2023-02-28T08:55:29;0.70;23.30
1381;DHT22;684;48.342;10.096;2023-02-28T08:57:56;0.60;22.50
1381;DHT22;684;48.342;10.096;2023-02-28T09:00:25;0.70;22.10
1381;DHT22;684;48.342;10.096;2023-02-28T09:02:52;0.70;21.70
1381;DHT22;684;48.342;10.096;2023-02-28T09:05:20;0.60;21.70
1381;DHT22;684;48.342;10.096;2023-02-28T09:07:47;0.50;22.10
1381;DHT22;684;48.342;10.096;2023-02-28T09:10:14;0.60;22.40
1381;DHT22;684;48.342;10.096;2023-02-28T09:12:41;0.70;22.40
1381;DHT22;684;48.342;10.096;2023-02-28T09:15:09;0.70;22.20
1381;DHT22;684;48.342;10.096;2023-02-28T09:17:37;0.80;22.00
1381;DHT22;684;48.342;10.096;2023-02-28T09:20:05;0.80;22.10
1381;DHT22;684;48.342;10.096;2023-02-28T09:22:32;0.80;21.60
1381;DHT22;684;48.342;10.096;2023-02-28T09:24:59;0.80;21.10
1381;DHT22;684;48.342;10.096;2023-02-28T09:27:25;0.90;21.50
1381;DHT22;684;48.342;10.096;2023-02-28T09:29:52;0.90;20.90
1381;DHT22;684;48.342;10.096;2023-02-28T09:32:19;1.00;21.20
1381;DHT22;684;48.342;10.096;2023-02-28T09:34:47;1.00;21.00
1381;DHT22;684;48.342;10.096;2023-02-28T09:37:14;1.10;20.70
1381;DHT22;684;48.342;10.096;2023-02-28T09:39:40;1.10;20.40
1381;DHT22;684;48.342;10.096;2023-02-28T09:42:18;1.20;20.50
1381;DHT22;684;48.342;10.096;2023-02-28T09:44:47;1.30;20.20
1381;DHT22;684;48.342;10.096;2023-02-28T09:47:21;1.30;20.30
1381;DHT22;684;48.342;10.096;2023-02-28T09:49:55;1.40;20.00
1381;DHT22;684;48.342;10.096;2023-02-28T09:52:27;1.40;19.80
1381;DHT22;684;48.342;10.096;2023-02-28T09:54:55;1.50;19.50
1381;DHT22;684;48.342;10.096;2023-02-28T09:57:29;1.50;19.60
1381;DHT22;684;48.342;10.096;2023-02-28T10:00:05;1.50;19.50
1381;DHT22;684;48.342;10.096;2023-02-28T10:05:50;1.40;19.50
1381;DHT22;684;48.342;10.096;2023-02-28T10:08:22;1.30;19.70
1381;DHT22;684;48.342;10.096;2023-02-28T10:10:53;1.20;19.60
1381;DHT22;684;48.342;10.096;2023-02-28T10:13:26;1.20;19.80
1381;DHT22;684;48.342;10.096;2023-02-28T10:15:56;1.40;20.00
1381;DHT22;684;48.342;10.096;2023-02-28T10:18:29;1.50;19.70
1381;DHT22;684;48.342;10.096;2023-02-28T10:20:58;1.70;19.50
1381;DHT22;684;48.342;10.096;2023-02-28T10:23:28;1.70;18.70
1381;DHT22;684;48.342;10.096;2023-02-28T10:25:59;1.80;19.00
1381;DHT22;684;48.342;10.096;2023-02-28T10:28:29;2.00;18.80
1381;DHT22;684;48.342;10.096;2023-02-28T10:30:56;1.90;17.90
1381;DHT22;684;48.342;10.096;2023-02-28T10:33:25;2.00;18.30
1381;DHT22;684;48.342;10.096;2023-02-28T10:35:53;2.20;18.30
1381;DHT22;684;48.342;10.096;2023-02-28T10:38:23;2.30;18.20
1381;DHT22;684;48.342;10.096;2023-02-28T10:40:50;2.40;17.60
1381;DHT22;684;48.342;10.096;2023-02-28T10:43:22;2.50;17.30
1381;DHT22;684;48.342;10.096;2023-02-28T10:46:01;2.60;17.00
1381;DHT22;684;48.342;10.096;2023-02-28T10:48:37;3.00;16.90
1381;DHT22;684;48.342;10.096;2023-02-28T10:51:06;3.00;16.70
1381;DHT22;684;48.342;10.096;2023-02-28T10:53:38;3.30;16.70
1381;DHT22;684;48.342;10.096;2023-02-28T10:56:15;3.60;15.90
1381;DHT22;684;48.342;10.096;2023-02-28T10:58:53;3.90;15.60
1381;DHT22;684;48.342;10.096;2023-02-28T11:01:22;4.40;15.20
1381;DHT22;684;48.342;10.096;2023-02-28T11:03:50;4.80;13.60
1381;DHT22;684;48.342;10.096;2023-02-28T11:06:19;5.00;13.40
1381;DHT22;684;48.342;10.096;2023-02-28T11:08:50;5.20;12.80
1381;DHT22;684;48.342;10.096;2023-02-28T11:11:19;5.30;12.60
1381;DHT22;684;48.342;10.096;2023-02-28T11:13:47;5.60;12.40
1381;DHT22;684;48.342;10.096;2023-02-28T11:16:16;5.80;12.10
1381;DHT22;684;48.342;10.096;2023-02-28T11:18:47;6.30;11.70
1381;DHT22;684;48.342;10.096;2023-02-28T11:21:21;6.70;11.00
1381;DHT22;684;48.342;10.096;2023-02-28T11:23:52;7.00;9.70
1381;DHT22;684;48.342;10.096;2023-02-28T11:26:41;7.40;10.70
1381;DHT22;684;48.342;10.096;2023-02-28T11:29:18;7.80;9.30
1381;DHT22;684;48.342;10.096;2023-02-28T11:32:01;8.30;8.90
1381;DHT22;684;48.342;10.096;2023-02-28T11:34:29;8.80;8.20
1381;DHT22;684;48.342;10.096;2023-02-28T11:36:58;9.30;7.60
1381;DHT22;684;48.342;10.096;2023-02-28T11:39:27;9.60;5.80
1381;DHT22;684;48.342;10.096;2023-02-28T11:42:09;9.90;5.00
1381;DHT22;684;48.342;10.096;2023-02-28T11:44:51;10.30;5.00
1381;DHT22;684;48.342;10.096;2023-02-28T11:47:30;10.70;4.60
1381;DHT22;684;48.342;10.096;2023-02-28T11:50:10;11.50;3.20
1381;DHT22;684;48.342;10.096;2023-02-28T11:52:45;11.90;2.10
1381;DHT22;684;48.342;10.096;2023-02-28T11:55:19;11.40;1.00
1381;DHT22;684;48.342;10.096;2023-02-28T11:58:03;11.00;1.80
1381;DHT22;684;48.342;10.096;2023-02-28T12:00:45;10.90;2.00
1381;DHT22;684;48.342;10.096;2023-02-28T12:03:26;11.00;2.30
1381;DHT22;684;48.342;10.096;2023-02-28T12:06:01;11.10;2.10
1381;DHT22;684;48.342;10.096;2023-02-28T12:08:44;11.10;1.90
1381;DHT22;684;48.342;10.096;2023-02-28T12:11:23;11.00;2.00
1381;DHT22;684;48.342;10.096;2023-02-28T12:14:00;11.00;2.20
1381;DHT22;684;48.342;10.096;2023-02-28T12:16:44;11.00;2.60
1381;DHT22;684;48.342;10.096;2023-02-28T12:19:19;11.40;2.80
1381;DHT22;684;48.342;10.096;2023-02-28T12:22:12;11.90;1.30
1381;DHT22;684;48.342;10.096;2023-02-28T12:25:02;11.60;1.00
1381;DHT22;684;48.342;10.096;2023-02-28T12:27:40;11.30;1.00
1381;DHT22;684;48.342;10.096;2023-02-28T12:30:17;11.10;1.80
1381;DHT22;684;48.342;10.096;2023-02-28T12:32:47;10.60;2.50
1381;DHT22;684;48.342;10.096;2023-02-28T12:35:18;10.60;2.70
1381;DHT22;684;48.342;10.096;2023-02-28T12:37:51;10.80;2.70
1381;DHT22;684;48.342;10.096;2023-02-28T12:40:22;10.70;1.90
1381;DHT22;684;48.342;10.096;2023-02-28T12:42:52;10.50;2.50
1381;DHT22;684;48.342;10.096;2023-02-28T12:45:22;10.70;3.30
1381;DHT22;684;48.342;10.096;2023-02-28T12:47:55;10.80;2.80
1381;DHT22;684;48.342;10.096;2023-02-28T12:50:24;10.70;2.70
1381;DHT22;684;48.342;10.096;2023-02-28T12:52:58;10.60;2.70
1381;DHT22;684;48.342;10.096;2023-02-28T12:55:31;10.00;2.90
1381;DHT22;684;48.342;10.096;2023-02-28T12:58:08;9.70;4.10
1381;DHT22;684;48.342;10.096;2023-02-28T13:00:47;9.40;4.10
1381;DHT22;684;48.342;10.096;2023-02-28T13:03:52;9.10;4.50
1381;DHT22;684;48.342;10.096;2023-02-28T13:06:39;8.90;4.80
1381;DHT22;684;48.342;10.096;2023-02-28T13:09:09;8.60;5.10
1381;DHT22;684;48.342;10.096;2023-02-28T13:11:42;8.30;5.80
1381;DHT22;684;48.342;10.096;2023-02-28T13:14:24;8.20;6.30
1381;DHT22;684;48.342;10.096;2023-02-28T13:16:57;8.10;6.70
1381;DHT22;684;48.342;10.096;2023-02-28T13:19:25;7.90;7.30
1381;DHT22;684;48.342;10.096;2023-02-28T13:21:54;7.60;7.20
1381;DHT22;684;48.342;10.096;2023-02-28T13:24:45;7.40;7.40
1381;DHT22;684;48.342;10.096;2023-02-28T13:27:34;7.20;8.30
1381;DHT22;684;48.342;10.096;2023-02-28T13:33:22;7.10;8.60
1381;DHT22;684;48.342;10.096;2023-02-28T13:36:06;7.00;8.80
1381;DHT22;684;48.342;10.096;2023-02-28T13:38:36;6.90;8.90
1381;DHT22;684;48.342;10.096;2023-02-28T13:41:41;6.80;9.70
1381;DHT22;684;48.342;10.096;2023-02-28T13:44:10;6.80;10.10
1381;DHT22;684;48.342;10.096;2023-02-28T13:49:45;6.80;9.60
1381;DHT22;684;48.342;10.096;2023-02-28T13:52:16;6.60;8.80
1381;DHT22;684;48.342;10.096;2023-02-28T13:54:57;6.40;9.10
1381;DHT22;684;48.342;10.096;2023-02-28T13:57:35;6.20;10.30
1381;DHT22;684;48.342;10.096;2023-02-28T14:00:19;6.10;10.30
1381;DHT22;684;48.342;10.096;2023-02-28T14:03:13;6.10;10.50
1381;DHT22;684;48.342;10.096;2023-02-28T14:05:44;6.00;10.20
1381;DHT22;684;48.342;10.096;2023-02-28T14:08:15;5.90;10.30
1381;DHT22;684;48.342;10.096;2023-02-28T14:10:45;5.90;10.60
1381;DHT22;684;48.342;10.096;2023-02-28T14:15:56;6.00;11.30
1381;DHT22;684;48.342;10.096;2023-02-28T14:18:30;6.10;11.10
1381;DHT22;684;48.342;10.096;2023-02-28T14:21:03;6.10;11.10
1381;DHT22;684;48.342;10.096;2023-02-28T14:23:56;6.10;11.30
1381;DHT22;684;48.342;10.096;2023-02-28T14:26:35;6.10;10.90
1381;DHT22;684;48.342;10.096;2023-02-28T14:29:18;6.00;10.60
1381;DHT22;684;48.342;10.096;2023-02-28T14:31:49;5.90;11.00
1381;DHT22;684;48.342;10.096;2023-02-28T14:34:37;5.80;10.90
1381;DHT22;684;48.342;10.096;2023-02-28T14:37:15;5.80;11.50
1381;DHT22;684;48.342;10.096;2023-02-28T14:39:43;5.70;11.50
1381;DHT22;684;48.342;10.096;2023-02-28T14:42:29;5.70;11.50
1381;DHT22;684;48.342;10.096;2023-02-28T14:44:55;5.60;11.80
1381;DHT22;684;48.342;10.096;2023-02-28T14:47:25;5.40;11.50
1381;DHT22;684;48.342;10.096;2023-02-28T14:49:53;5.40;12.00
1381;DHT22;684;48.342;10.096;2023-02-28T14:52:23;5.50;12.40
1381;DHT22;684;48.342;10.096;2023-02-28T14:54:53;5.60;12.20
1381;DHT22;684;48.342;10.096;2023-02-28T14:57:23;5.60;11.70
1381;DHT22;684;48.342;10.096;2023-02-28T14:59:58;5.60;11.90
1381;DHT22;684;48.342;10.096;2023-02-28T15:02:29;5.50;12.30
1381;DHT22;684;48.342;10.096;2023-02-28T15:04:58;5.50;12.30
1381;DHT22;684;48.342;10.096;2023-02-28T15:07:27;5.30;12.20
1381;DHT22;684;48.342;10.096;2023-02-28T15:10:22;5.40;12.30
1381;DHT22;684;48.342;10.096;2023-02-28T15:12:53;5.30;12.20
1381;DHT22;684;48.342;10.096;2023-02-28T15:15:23;5.20;12.70
1381;DHT22;684;48.342;10.096;2023-02-28T15:17:54;5.20;13.10
1381;DHT22;684;48.342;10.096;2023-02-28T15:20:23;5.30;13.20
1381;DHT22;684;48.342;10.096;2023-02-28T15:22:55;5.40;13.10
1381;DHT22;684;48.342;10.096;2023-02-28T15:25:23;5.30;13.10
1381;DHT22;684;48.342;10.096;2023-02-28T15:27:51;5.30;12.90
1381;DHT22;684;48.342;10.096;2023-02-28T15:30:21;5.20;12.90
1381;DHT22;684;48.342;10.096;2023-02-28T15:33:04;5.00;13.10
1381;DHT22;684;48.342;10.096;2023-02-28T15:35:32;5.00;13.40
1381;DHT22;684;48.342;10.096;2023-02-28T15:38:02;5.00;13.70
1381;DHT22;684;48.342;10.096;2023-02-28T15:40:33;4.90;13.90
1381;DHT22;684;48.342;10.096;2023-02-28T15:43:06;5.00;14.00
1381;DHT22;684;48.342;10.096;2023-02-28T15:45:37;5.00;13.90
1381;DHT22;684;48.342;10.096;2023-02-28T15:48:18;5.00;13.90
1381;DHT22;684;48.342;10.096;2023-02-28T15:50:48;5.00;14.00
1381;DHT22;684;48.342;10.096;2023-02-28T15:53:20;5.00;14.00
1381;DHT22;684;48.342;10.096;2023-02-28T15:55:57;5.00;14.00
1381;DHT22;684;48.342;10.096;2023-02-28T15:58:25;5.00;14.00
1381;DHT22;684;48.342;10.096;2023-02-28T16:01:05;5.00;14.00
1381;DHT22;684;48.342;10.096;2023-02-28T16:03:39;5.00;14.20
1381;DHT22;684;48.342;10.096;2023-02-28T16:06:34;4.90;14.40
1381;DHT22;684;48.342;10.096;2023-02-28T16:09:05;4.90;14.60
1381;DHT22;684;48.342;10.096;2023-02-28T16:11:34;4.80;14.40
1381;DHT22;684;48.342;10.096;2023-02-28T16:14:01;4.70;14.30
1381;DHT22;684;48.342;10.096;2023-02-28T16:16:28;4.70;14.60
1381;DHT22;684;48.342;10.096;2023-02-28T16:18:56;4.60;14.60
1381;DHT22;684;48.342;10.096;2023-02-28T16:21:24;4.60;14.80
1381;DHT22;684;48.342;10.096;2023-02-28T16:23:51;4.50;15.00
1381;DHT22;684;48.342;10.096;2023-02-28T16:26:22;4.40;15.00
1381;DHT22;684;48.342;10.096;2023-02-28T16:28:50;4.40;15.00
1381;DHT22;684;48.342;10.096;2023-02-28T16:31:17;4.30;15.30
1381;DHT22;684;48.342;10.096;2023-02-28T16:33:44;4.30;15.40
1381;DHT22;684;48.342;10.096;2023-02-28T16:36:17;4.20;15.40
1381;DHT22;684;48.342;10.096;2023-02-28T16:38:44;4.20;15.50
1381;DHT22;684;48.342;10.096;2023-02-28T16:41:13;4.10;15.60
1381;DHT22;684;48.342;10.096;2023-02-28T16:43:46;4.00;15.80
1381;DHT22;684;48.342;10.096;2023-02-28T16:46:14;4.00;16.00
1381;DHT22;684;48.342;10.096;2023-02-28T16:48:42;4.00;16.10
1381;DHT22;684;48.342;10.096;2023-02-28T16:51:12;3.90;16.20
1381;DHT22;684;48.342;10.096;2023-02-28T16:53:39;3.90;16.40